createdAt,value
2018-11-06T00:01:38.517Z,98315.92
2018-11-06T00:06:39.149Z,98321.05
2018-11-06T00:11:39.701Z,98315.63
2018-11-06T00:16:40.339Z,98315.34
2018-11-06T00:21:40.994Z,98318.97
2018-11-06T00:26:41.551Z,98311.73
2018-11-06T00:31:42.183Z,98319.61
2018-11-06T00:36:42.812Z,98320.90
2018-11-06T00:41:43.478Z,98322.61
2018-11-06T00:46:44.044Z,98314.32
2018-11-06T00:51:44.654Z,98318.55
2018-11-06T00:56:45.292Z,98313.04
2018-11-06T01:01:45.950Z,98316.47
2018-11-06T01:06:47.017Z,98315.64
2018-11-06T01:11:47.649Z,98319.60
2018-11-06T01:16:48.288Z,98330.47
2018-11-06T01:21:48.934Z,98322.30
2018-11-06T01:26:49.586Z,98345.98
2018-11-06T01:31:50.221Z,98337.02
2018-11-06T01:36:50.881Z,98328.59
2018-11-06T01:41:51.513Z,98330.09
2018-11-06T01:46:52.160Z,98309.43
2018-11-06T01:51:52.817Z,98331.72
2018-11-06T01:56:53.459Z,98330.26
2018-11-06T02:01:54.021Z,98337.22
2018-11-06T02:06:54.664Z,98334.30
2018-11-06T02:11:55.281Z,98336.64
2018-11-06T02:16:55.936Z,98320.72
2018-11-06T02:21:56.586Z,98308.23
2018-11-06T02:26:57.233Z,98320.27
2018-11-06T02:31:57.882Z,98330.54
2018-11-06T02:36:58.516Z,98341.19
2018-11-06T02:41:59.164Z,98325.06
2018-11-06T02:46:59.819Z,98329.49
2018-11-06T02:52:00.448Z,98341.11
2018-11-06T02:57:00.995Z,98335.48
2018-11-06T03:02:01.550Z,98337.39
2018-11-06T03:07:02.187Z,98338.67
2018-11-06T03:12:02.825Z,98339.18
2018-11-06T03:17:03.486Z,98318.89
2018-11-06T03:22:04.027Z,98322.24
2018-11-06T03:27:04.650Z,98327.08
2018-11-06T03:32:05.217Z,98334.42
2018-11-06T03:37:05.859Z,98334.59
2018-11-06T03:42:06.393Z,98328.97
2018-11-06T03:47:07.069Z,98335.55
2018-11-06T03:52:07.617Z,98345.92
2018-11-06T03:57:08.237Z,98337.05
2018-11-06T04:02:08.805Z,98347.61
2018-11-06T04:07:09.804Z,98341.62
2018-11-06T04:12:10.379Z,98327.81
2018-11-06T04:17:11.023Z,98334.71
2018-11-06T04:22:11.660Z,98326.91
2018-11-06T04:27:12.314Z,98326.57
2018-11-06T04:32:12.853Z,98342.28
2018-11-06T04:37:13.455Z,98348.72
2018-11-06T04:42:14.157Z,98352.94
2018-11-06T04:47:14.800Z,98356.84
2018-11-06T04:52:15.424Z,98354.37
2018-11-06T04:57:16.074Z,98344.75
2018-11-06T05:02:16.847Z,98352.45
2018-11-06T05:07:17.312Z,98333.89
2018-11-06T05:12:17.876Z,98321.78
2018-11-06T05:17:18.429Z,98327.08
2018-11-06T05:22:19.000Z,98350.31
2018-11-06T05:27:19.697Z,98347.92
2018-11-06T05:32:20.289Z,98335.24
2018-11-06T05:37:20.845Z,98341.09
2018-11-06T05:42:21.392Z,98336.38
2018-11-06T05:47:22.018Z,98339.57
2018-11-06T05:52:22.685Z,98345.62
2018-11-06T05:57:24.342Z,98339.24
2018-11-06T06:02:24.892Z,98342.46
2018-11-06T06:07:25.541Z,98346.16
2018-11-06T06:12:26.161Z,98352.50
2018-11-06T06:17:26.807Z,98359.92
2018-11-06T06:22:27.467Z,98362.09
2018-11-06T06:27:28.101Z,98355.17
2018-11-06T06:32:28.773Z,98369.45
2018-11-06T06:37:29.419Z,98367.73
2018-11-06T06:42:30.037Z,98359.09
2018-11-06T06:47:30.697Z,98364.30
2018-11-06T06:52:31.327Z,98361.00
2018-11-06T06:57:31.982Z,98347.00
2018-11-06T07:02:33.129Z,98350.16
2018-11-06T07:12:39.800Z,98348.09
2018-11-06T07:17:40.762Z,98364.09
2018-11-06T07:22:41.364Z,98367.38
2018-11-06T07:27:41.900Z,98364.86
2018-11-06T07:32:42.461Z,98364.19
2018-11-06T07:37:43.075Z,98371.75
2018-11-06T07:42:43.725Z,98377.20
2018-11-06T07:47:44.369Z,98381.24
2018-11-06T07:52:45.022Z,98390.47
2018-11-06T07:57:45.680Z,98388.23
2018-11-06T08:02:46.312Z,98387.50
2018-11-06T08:07:46.864Z,98383.51
2018-11-06T08:12:47.493Z,98378.81
2018-11-06T08:17:48.046Z,98378.15
2018-11-06T08:22:48.705Z,98373.08
2018-11-06T08:27:49.359Z,98381.94
2018-11-06T08:32:50.216Z,98385.80
2018-11-06T08:37:50.541Z,98376.46
2018-11-06T08:42:51.172Z,98368.03
2018-11-06T08:47:51.834Z,98355.17
2018-11-06T08:52:52.451Z,98354.21
2018-11-06T08:57:53.100Z,98362.07
2018-11-06T09:02:53.745Z,98365.71
2018-11-06T09:07:54.398Z,98358.47
2018-11-06T09:12:55.041Z,98365.50
2018-11-06T09:17:55.688Z,98364.36
2018-11-06T09:22:56.332Z,98360.45
2018-11-06T09:27:56.879Z,98369.73
2018-11-06T09:32:57.420Z,98354.90
2018-11-06T09:37:58.092Z,98351.77
2018-11-06T09:42:58.725Z,98343.22
2018-11-06T09:47:59.359Z,98337.52
2018-11-06T09:53:00.004Z,98337.33
2018-11-06T09:58:00.658Z,98335.89
2018-11-06T10:03:01.290Z,98331.82
2018-11-06T10:08:01.972Z,98328.13
2018-11-06T10:13:02.584Z,98312.30
2018-11-06T10:18:03.236Z,98317.38
2018-11-06T10:23:03.893Z,98316.89
2018-11-06T10:28:04.517Z,98306.46
2018-11-06T10:33:05.189Z,98301.30
2018-11-06T10:38:05.847Z,98303.45
2018-11-06T10:43:06.455Z,98318.47
2018-11-06T10:48:07.001Z,98323.78
2018-11-06T10:53:08.760Z,98320.89
2018-11-06T10:58:09.471Z,98329.14
2018-11-06T11:03:10.069Z,98319.12
2018-11-06T11:08:10.709Z,98306.90
2018-11-06T11:13:13.726Z,98295.98
2018-11-06T11:18:15.015Z,98293.34
2018-11-06T11:23:15.627Z,98275.94
2018-11-06T11:28:16.251Z,98258.48
2018-11-06T11:33:16.921Z,98248.98
2018-11-06T11:38:17.485Z,98253.95
2018-11-06T11:43:18.036Z,98242.95
2018-11-06T11:48:18.638Z,98233.08
2018-11-06T11:58:50.956Z,98221.52
2018-11-06T12:03:51.507Z,98217.36
2018-11-06T12:08:52.175Z,98211.56
2018-11-06T12:13:52.788Z,98203.86
2018-11-06T12:18:53.429Z,98202.83
2018-11-06T12:23:54.110Z,98189.70
2018-11-06T12:28:54.729Z,98193.34
2018-11-06T12:33:55.380Z,98189.56
2018-11-06T12:38:55.940Z,98180.02
2018-11-06T12:43:56.501Z,98182.50
2018-11-06T12:48:57.049Z,98173.69
2018-11-06T12:53:57.643Z,98173.03
2018-11-06T12:58:58.186Z,98171.95
2018-11-06T13:03:58.828Z,98169.20
2018-11-06T13:08:59.488Z,98169.80
2018-11-06T13:14:01.151Z,98173.77
2018-11-06T13:19:01.929Z,98163.66
2018-11-06T13:24:02.490Z,98157.02
2018-11-06T13:29:03.089Z,98140.00
2018-11-06T13:34:03.734Z,98139.96
2018-11-06T13:39:04.284Z,98145.02
2018-11-06T13:44:05.100Z,98147.05
2018-11-06T13:49:05.500Z,98145.68
2018-11-06T13:54:06.108Z,98140.77
2018-11-06T13:59:06.660Z,98136.59
2018-11-06T14:04:07.258Z,98141.35
2018-11-06T14:09:07.808Z,98140.65
2018-11-06T14:14:08.384Z,98135.14
2018-11-06T14:19:10.485Z,98136.06
2018-11-06T14:24:11.112Z,98138.05
2018-11-06T14:29:11.762Z,98133.44
2018-11-06T14:34:12.405Z,98128.73
2018-11-06T14:39:12.953Z,98141.28
2018-11-06T14:44:13.582Z,98154.05
2018-11-06T14:49:14.186Z,98151.64
2018-11-06T14:54:15.544Z,98146.91
2018-11-06T14:59:16.964Z,98146.90
2018-11-06T15:04:17.635Z,98156.48
2018-11-06T15:09:18.190Z,98147.00
2018-11-06T15:14:18.803Z,98156.59
2018-11-06T15:19:19.469Z,98151.64
2018-11-06T15:24:20.080Z,98150.13
2018-11-06T15:29:20.757Z,98156.05
2018-11-06T15:34:21.333Z,98161.16
2018-11-06T15:39:21.931Z,98154.41
2018-11-06T15:44:22.580Z,98165.77
2018-11-06T15:49:23.225Z,98160.82
2018-11-06T15:54:23.902Z,98161.49
2018-11-06T15:59:24.481Z,98149.87
2018-11-06T16:04:25.114Z,98162.69
2018-11-06T16:09:25.728Z,98168.00
2018-11-06T16:14:26.363Z,98162.36
2018-11-06T16:19:27.009Z,98169.60
2018-11-06T16:24:27.573Z,98180.37
2018-11-06T16:29:29.056Z,98179.01
2018-11-06T16:34:29.868Z,98202.83
2018-11-06T16:39:30.519Z,98206.23
2018-11-06T16:44:31.163Z,98218.36
2018-11-06T16:49:31.858Z,98230.61
2018-11-06T16:54:32.486Z,98237.81
2018-11-06T16:59:33.227Z,98232.74
2018-11-06T17:04:34.036Z,98232.41
2018-11-06T17:09:38.958Z,98236.03
2018-11-06T17:19:46.852Z,98254.07
2018-11-06T17:24:49.213Z,98269.67
2018-11-06T17:40:03.041Z,98299.06
2018-11-06T17:50:11.297Z,98295.99
2018-11-06T18:00:20.495Z,98307.13
2018-11-06T18:10:29.386Z,98305.30
2018-11-06T18:20:38.300Z,98323.63
2018-11-06T18:25:42.793Z,98314.86
2018-11-06T18:43:29.614Z,98318.41
2018-11-06T18:48:43.303Z,98322.41
2018-11-06T18:53:45.990Z,98323.38
2018-11-06T18:58:47.086Z,98317.75
2018-11-06T19:08:54.287Z,98314.38
2018-11-06T19:13:54.958Z,98324.45
2018-11-06T19:24:01.908Z,98325.30
2018-11-06T19:34:31.706Z,98315.54
2018-11-06T19:39:32.356Z,98334.22
2018-11-06T19:44:35.924Z,98355.19
2018-11-06T19:59:54.208Z,98371.28
2018-11-06T20:04:54.852Z,98365.10
2018-11-06T20:24:48.250Z,98377.77
2018-11-06T20:34:55.934Z,98390.13
2018-11-06T20:39:56.665Z,98383.95
2018-11-06T20:50:04.362Z,98380.37
2018-11-06T20:55:05.614Z,98387.03
2018-11-06T21:05:13.070Z,98389.88
2018-11-06T21:10:13.839Z,98397.30
2018-11-06T21:15:14.573Z,98409.66
2018-11-06T21:20:16.298Z,98400.72
2018-11-06T21:25:16.943Z,98394.33
2018-11-06T21:40:30.847Z,98403.62
2018-11-06T21:45:32.727Z,98401.99
2018-11-06T21:50:33.416Z,98408.98
2018-11-06T21:55:35.104Z,98411.23
2018-11-06T22:00:35.821Z,98411.36
2018-11-06T22:12:44.657Z,98406.34
2018-11-06T22:17:45.227Z,98403.48
2018-11-06T22:22:45.926Z,98408.94
2018-11-06T22:27:46.576Z,98406.78
2018-11-06T22:32:47.387Z,98414.08
2018-11-06T22:37:49.337Z,98417.38
2018-11-06T22:47:56.485Z,98418.63
2018-11-06T22:53:02.086Z,98426.15
2018-11-06T23:08:26.089Z,98428.17
2018-11-06T23:13:27.755Z,98431.18
2018-11-06T23:18:28.423Z,98434.39
2018-11-06T23:23:30.884Z,98421.55
2018-11-06T23:43:57.357Z,98440.58
